sensor_id;sensor_type;location;lat;lon;timestamp;P1;durP1;ratioP1;P2;durP2;ratioP2
24635;SDS011;12772;49.794;10.024;2022-10-16T00:00:56;1.00;;;0.98;;
24635;SDS011;12772;49.794;10.024;2022-10-16T00:04:58;1.85;;;1.08;;
24635;SDS011;12772;49.794;10.024;2022-10-16T00:09:00;2.25;;;1.10;;
24635;SDS011;12772;49.794;10.024;2022-10-16T00:13:03;2.10;;;1.40;;
24635;SDS011;12772;49.794;10.024;2022-10-16T00:17:05;2.97;;;1.20;;
24635;SDS011;12772;49.794;10.024;2022-10-16T00:21:11;1.67;;;1.30;;
24635;SDS011;12772;49.794;10.024;2022-10-16T00:25:16;1.10;;;1.08;;
24635;SDS011;12772;49.794;10.024;2022-10-16T00:29:18;1.15;;;1.00;;
24635;SDS011;12772;49.794;10.024;2022-10-16T00:33:20;1.35;;;1.25;;
24635;SDS011;12772;49.794;10.024;2022-10-16T00:37:22;2.83;;;1.27;;
24635;SDS011;12772;49.794;10.024;2022-10-16T00:41:24;2.25;;;1.05;;
24635;SDS011;12772;49.794;10.024;2022-10-16T00:45:27;3.38;;;1.13;;
24635;SDS011;12772;49.794;10.024;2022-10-16T00:49:29;1.70;;;0.90;;
24635;SDS011;12772;49.794;10.024;2022-10-16T00:53:31;1.10;;;1.08;;
24635;SDS011;12772;49.794;10.024;2022-10-16T00:57:34;3.30;;;1.10;;
24635;SDS011;12772;49.794;10.024;2022-10-16T01:01:36;1.95;;;1.02;;
24635;SDS011;12772;49.794;10.024;2022-10-16T01:05:39;1.40;;;1.30;;
24635;SDS011;12772;49.794;10.024;2022-10-16T01:13:55;1.20;;;1.10;;
24635;SDS011;12772;49.794;10.024;2022-10-16T01:18:19;3.33;;;1.00;;
24635;SDS011;12772;49.794;10.024;2022-10-16T01:22:32;0.90;;;0.90;;
24635;SDS011;12772;49.794;10.024;2022-10-16T01:31:06;0.90;;;0.90;;
24635;SDS011;12772;49.794;10.024;2022-10-16T01:35:11;1.00;;;0.90;;
24635;SDS011;12772;49.794;10.024;2022-10-16T01:39:22;1.20;;;1.10;;
24635;SDS011;12772;49.794;10.024;2022-10-16T01:43:40;1.40;;;1.30;;
24635;SDS011;12772;49.794;10.024;2022-10-16T01:47:45;1.02;;;1.02;;
24635;SDS011;12772;49.794;10.024;2022-10-16T01:51:50;1.95;;;1.20;;
24635;SDS011;12772;49.794;10.024;2022-10-16T01:55:57;1.08;;;1.05;;
24635;SDS011;12772;49.794;10.024;2022-10-16T02:00:01;1.23;;;1.13;;
24635;SDS011;12772;49.794;10.024;2022-10-16T02:04:09;4.43;;;1.50;;
24635;SDS011;12772;49.794;10.024;2022-10-16T02:08:16;1.50;;;1.40;;
24635;SDS011;12772;49.794;10.024;2022-10-16T02:12:25;2.33;;;1.23;;
24635;SDS011;12772;49.794;10.024;2022-10-16T02:16:37;2.28;;;1.15;;
24635;SDS011;12772;49.794;10.024;2022-10-16T02:20:47;1.27;;;1.25;;
24635;SDS011;12772;49.794;10.024;2022-10-16T02:29:08;2.00;;;1.40;;
24635;SDS011;12772;49.794;10.024;2022-10-16T02:33:13;2.80;;;1.20;;
24635;SDS011;12772;49.794;10.024;2022-10-16T02:37:17;2.47;;;1.30;;
24635;SDS011;12772;49.794;10.024;2022-10-16T02:41:20;1.20;;;1.10;;
24635;SDS011;12772;49.794;10.024;2022-10-16T02:45:23;1.95;;;1.00;;
24635;SDS011;12772;49.794;10.024;2022-10-16T02:49:25;2.30;;;1.35;;
24635;SDS011;12772;49.794;10.024;2022-10-16T02:53:27;2.25;;;0.90;;
24635;SDS011;12772;49.794;10.024;2022-10-16T02:57:29;0.90;;;0.90;;
24635;SDS011;12772;49.794;10.024;2022-10-16T03:01:32;1.95;;;1.05;;
24635;SDS011;12772;49.794;10.024;2022-10-16T03:05:34;1.00;;;1.00;;
24635;SDS011;12772;49.794;10.024;2022-10-16T03:09:36;1.10;;;1.10;;
24635;SDS011;12772;49.794;10.024;2022-10-16T03:13:38;1.17;;;1.05;;
24635;SDS011;12772;49.794;10.024;2022-10-16T03:17:40;0.90;;;0.90;;
24635;SDS011;12772;49.794;10.024;2022-10-16T03:21:42;1.92;;;0.98;;
24635;SDS011;12772;49.794;10.024;2022-10-16T03:25:44;1.25;;;0.85;;
24635;SDS011;12772;49.794;10.024;2022-10-16T03:29:46;1.15;;;0.93;;
24635;SDS011;12772;49.794;10.024;2022-10-16T03:33:48;1.40;;;1.05;;
24635;SDS011;12772;49.794;10.024;2022-10-16T03:37:50;2.35;;;1.10;;
24635;SDS011;12772;49.794;10.024;2022-10-16T03:41:52;1.13;;;1.13;;
24635;SDS011;12772;49.794;10.024;2022-10-16T03:45:54;1.10;;;1.00;;
24635;SDS011;12772;49.794;10.024;2022-10-16T03:49:56;1.60;;;1.10;;
24635;SDS011;12772;49.794;10.024;2022-10-16T03:53:58;1.42;;;1.02;;
24635;SDS011;12772;49.794;10.024;2022-10-16T03:58:00;1.73;;;1.30;;
24635;SDS011;12772;49.794;10.024;2022-10-16T04:02:02;2.00;;;0.73;;
24635;SDS011;12772;49.794;10.024;2022-10-16T04:06:04;1.17;;;0.95;;
24635;SDS011;12772;49.794;10.024;2022-10-16T04:10:07;1.02;;;1.00;;
24635;SDS011;12772;49.794;10.024;2022-10-16T04:14:09;1.33;;;1.00;;
24635;SDS011;12772;49.794;10.024;2022-10-16T04:18:11;1.42;;;0.98;;
24635;SDS011;12772;49.794;10.024;2022-10-16T04:22:13;1.88;;;0.93;;
24635;SDS011;12772;49.794;10.024;2022-10-16T04:26:15;1.70;;;0.95;;
24635;SDS011;12772;49.794;10.024;2022-10-16T04:30:17;1.00;;;1.00;;
24635;SDS011;12772;49.794;10.024;2022-10-16T04:34:19;1.77;;;1.13;;
24635;SDS011;12772;49.794;10.024;2022-10-16T04:38:21;3.72;;;1.00;;
24635;SDS011;12772;49.794;10.024;2022-10-16T04:42:23;1.48;;;1.38;;
24635;SDS011;12772;49.794;10.024;2022-10-16T04:46:25;2.90;;;1.05;;
24635;SDS011;12772;49.794;10.024;2022-10-16T04:50:27;1.42;;;1.00;;
24635;SDS011;12772;49.794;10.024;2022-10-16T04:54:29;1.00;;;1.00;;
24635;SDS011;12772;49.794;10.024;2022-10-16T04:58:32;2.55;;;1.00;;
24635;SDS011;12772;49.794;10.024;2022-10-16T05:02:34;1.27;;;1.00;;
24635;SDS011;12772;49.794;10.024;2022-10-16T05:06:36;1.05;;;1.05;;
24635;SDS011;12772;49.794;10.024;2022-10-16T05:10:42;1.17;;;0.90;;
24635;SDS011;12772;49.794;10.024;2022-10-16T05:14:45;1.08;;;0.95;;
24635;SDS011;12772;49.794;10.024;2022-10-16T05:18:47;1.42;;;1.00;;
24635;SDS011;12772;49.794;10.024;2022-10-16T05:22:49;2.25;;;1.02;;
24635;SDS011;12772;49.794;10.024;2022-10-16T05:26:52;1.77;;;1.10;;
24635;SDS011;12772;49.794;10.024;2022-10-16T05:30:54;4.05;;;1.50;;
24635;SDS011;12772;49.794;10.024;2022-10-16T05:34:56;2.15;;;1.02;;
24635;SDS011;12772;49.794;10.024;2022-10-16T05:38:59;1.95;;;1.20;;
24635;SDS011;12772;49.794;10.024;2022-10-16T05:43:01;1.73;;;1.02;;
24635;SDS011;12772;49.794;10.024;2022-10-16T05:47:03;2.17;;;1.02;;
24635;SDS011;12772;49.794;10.024;2022-10-16T05:51:06;1.65;;;0.95;;
24635;SDS011;12772;49.794;10.024;2022-10-16T05:55:10;3.30;;;1.10;;
24635;SDS011;12772;49.794;10.024;2022-10-16T05:59:12;1.25;;;1.10;;
24635;SDS011;12772;49.794;10.024;2022-10-16T06:03:14;2.33;;;1.25;;
24635;SDS011;12772;49.794;10.024;2022-10-16T06:07:16;1.75;;;1.27;;
24635;SDS011;12772;49.794;10.024;2022-10-16T06:11:19;2.30;;;0.98;;
24635;SDS011;12772;49.794;10.024;2022-10-16T06:15:23;1.42;;;1.33;;
24635;SDS011;12772;49.794;10.024;2022-10-16T06:19:25;2.63;;;1.27;;
24635;SDS011;12772;49.794;10.024;2022-10-16T06:23:28;5.63;;;1.30;;
24635;SDS011;12772;49.794;10.024;2022-10-16T06:27:30;4.22;;;1.10;;
24635;SDS011;12772;49.794;10.024;2022-10-16T06:31:32;2.67;;;1.17;;
24635;SDS011;12772;49.794;10.024;2022-10-16T06:35:34;1.50;;;1.35;;
24635;SDS011;12772;49.794;10.024;2022-10-16T06:39:36;1.80;;;1.40;;
24635;SDS011;12772;49.794;10.024;2022-10-16T06:43:38;1.00;;;1.00;;
24635;SDS011;12772;49.794;10.024;2022-10-16T06:47:40;1.08;;;1.08;;
24635;SDS011;12772;49.794;10.024;2022-10-16T06:51:42;1.20;;;1.20;;
24635;SDS011;12772;49.794;10.024;2022-10-16T06:55:44;2.50;;;1.10;;
24635;SDS011;12772;49.794;10.024;2022-10-16T06:59:46;1.20;;;1.00;;
24635;SDS011;12772;49.794;10.024;2022-10-16T07:03:48;2.25;;;1.20;;
24635;SDS011;12772;49.794;10.024;2022-10-16T07:07:50;0.95;;;0.95;;
24635;SDS011;12772;49.794;10.024;2022-10-16T07:11:52;1.48;;;1.33;;
24635;SDS011;12772;49.794;10.024;2022-10-16T07:15:54;2.45;;;1.08;;
24635;SDS011;12772;49.794;10.024;2022-10-16T07:19:56;1.17;;;1.08;;
24635;SDS011;12772;49.794;10.024;2022-10-16T07:23:59;1.08;;;1.00;;
24635;SDS011;12772;49.794;10.024;2022-10-16T07:28:02;1.13;;;1.10;;
24635;SDS011;12772;49.794;10.024;2022-10-16T07:32:04;1.20;;;1.10;;
24635;SDS011;12772;49.794;10.024;2022-10-16T07:36:07;2.25;;;1.40;;
24635;SDS011;12772;49.794;10.024;2022-10-16T07:40:09;2.42;;;1.27;;
24635;SDS011;12772;49.794;10.024;2022-10-16T07:44:11;1.10;;;1.10;;
24635;SDS011;12772;49.794;10.024;2022-10-16T07:48:13;1.52;;;1.38;;
24635;SDS011;12772;49.794;10.024;2022-10-16T07:52:15;3.80;;;1.50;;
24635;SDS011;12772;49.794;10.024;2022-10-16T07:56:18;1.10;;;1.10;;
24635;SDS011;12772;49.794;10.024;2022-10-16T08:00:20;1.63;;;1.50;;
24635;SDS011;12772;49.794;10.024;2022-10-16T08:04:22;1.50;;;1.40;;
24635;SDS011;12772;49.794;10.024;2022-10-16T08:08:24;1.83;;;1.73;;
24635;SDS011;12772;49.794;10.024;2022-10-16T08:12:27;3.38;;;1.95;;
24635;SDS011;12772;49.794;10.024;2022-10-16T08:16:29;2.10;;;1.90;;
24635;SDS011;12772;49.794;10.024;2022-10-16T08:20:31;4.03;;;2.08;;
24635;SDS011;12772;49.794;10.024;2022-10-16T08:24:34;2.30;;;2.10;;
24635;SDS011;12772;49.794;10.024;2022-10-16T08:28:37;2.78;;;1.90;;
24635;SDS011;12772;49.794;10.024;2022-10-16T08:32:40;5.75;;;1.90;;
24635;SDS011;12772;49.794;10.024;2022-10-16T08:36:42;2.13;;;1.52;;
24635;SDS011;12772;49.794;10.024;2022-10-16T08:40:47;1.92;;;1.40;;
24635;SDS011;12772;49.794;10.024;2022-10-16T08:48:53;2.20;;;1.42;;
24635;SDS011;12772;49.794;10.024;2022-10-16T08:52:57;1.23;;;1.23;;
24635;SDS011;12772;49.794;10.024;2022-10-16T08:57:11;2.85;;;1.50;;
24635;SDS011;12772;49.794;10.024;2022-10-16T09:01:16;1.77;;;1.33;;
24635;SDS011;12772;49.794;10.024;2022-10-16T09:13:59;1.50;;;1.40;;
24635;SDS011;12772;49.794;10.024;2022-10-16T09:27:12;5.75;;;1.58;;
24635;SDS011;12772;49.794;10.024;2022-10-16T09:31:19;9.32;;;1.50;;
24635;SDS011;12772;49.794;10.024;2022-10-16T09:35:45;2.97;;;1.15;;
24635;SDS011;12772;49.794;10.024;2022-10-16T09:39:51;1.42;;;1.30;;
24635;SDS011;12772;49.794;10.024;2022-10-16T09:43:55;1.17;;;1.02;;
24635;SDS011;12772;49.794;10.024;2022-10-16T09:48:00;1.30;;;1.20;;
24635;SDS011;12772;49.794;10.024;2022-10-16T09:52:12;2.72;;;1.25;;
24635;SDS011;12772;49.794;10.024;2022-10-16T09:56:21;1.10;;;1.10;;
24635;SDS011;12772;49.794;10.024;2022-10-16T10:00:25;1.83;;;1.10;;
24635;SDS011;12772;49.794;10.024;2022-10-16T10:04:36;2.40;;;1.10;;
24635;SDS011;12772;49.794;10.024;2022-10-16T10:08:40;1.45;;;1.10;;
24635;SDS011;12772;49.794;10.024;2022-10-16T10:12:43;1.33;;;1.23;;
24635;SDS011;12772;49.794;10.024;2022-10-16T10:16:47;1.83;;;1.42;;
24635;SDS011;12772;49.794;10.024;2022-10-16T10:20:59;1.77;;;1.38;;
24635;SDS011;12772;49.794;10.024;2022-10-16T10:33:25;1.35;;;1.27;;
24635;SDS011;12772;49.794;10.024;2022-10-16T10:38:09;4.97;;;1.50;;
24635;SDS011;12772;49.794;10.024;2022-10-16T10:50:45;2.20;;;1.92;;
24635;SDS011;12772;49.794;10.024;2022-10-16T11:08:17;2.25;;;1.77;;
24635;SDS011;12772;49.794;10.024;2022-10-16T11:12:25;1.50;;;1.40;;
24635;SDS011;12772;49.794;10.024;2022-10-16T11:16:35;1.67;;;1.58;;
24635;SDS011;12772;49.794;10.024;2022-10-16T11:20:42;1.30;;;1.20;;
24635;SDS011;12772;49.794;10.024;2022-10-16T11:24:53;3.30;;;1.60;;
24635;SDS011;12772;49.794;10.024;2022-10-16T11:29:04;2.05;;;1.27;;
24635;SDS011;12772;49.794;10.024;2022-10-16T11:37:20;2.13;;;1.55;;
24635;SDS011;12772;49.794;10.024;2022-10-16T11:45:45;3.20;;;1.55;;
24635;SDS011;12772;49.794;10.024;2022-10-16T11:49:57;2.40;;;1.48;;
24635;SDS011;12772;49.794;10.024;2022-10-16T11:54:22;4.93;;;1.52;;
24635;SDS011;12772;49.794;10.024;2022-10-16T11:58:41;2.90;;;2.00;;
24635;SDS011;12772;49.794;10.024;2022-10-16T12:07:20;1.40;;;1.30;;
24635;SDS011;12772;49.794;10.024;2022-10-16T12:15:29;1.35;;;1.25;;
24635;SDS011;12772;49.794;10.024;2022-10-16T12:19:33;5.20;;;1.35;;
24635;SDS011;12772;49.794;10.024;2022-10-16T12:23:39;1.38;;;1.20;;
24635;SDS011;12772;49.794;10.024;2022-10-16T12:32:03;1.00;;;1.00;;
24635;SDS011;12772;49.794;10.024;2022-10-16T12:36:10;3.15;;;1.30;;
24635;SDS011;12772;49.794;10.024;2022-10-16T12:40:31;2.83;;;1.10;;
24635;SDS011;12772;49.794;10.024;2022-10-16T12:44:35;1.35;;;1.25;;
24635;SDS011;12772;49.794;10.024;2022-10-16T12:48:38;1.33;;;1.23;;
24635;SDS011;12772;49.794;10.024;2022-10-16T12:52:42;1.20;;;1.10;;
24635;SDS011;12772;49.794;10.024;2022-10-16T13:05:40;1.52;;;1.45;;
24635;SDS011;12772;49.794;10.024;2022-10-16T13:10:00;1.52;;;1.42;;
24635;SDS011;12772;49.794;10.024;2022-10-16T13:14:37;3.22;;;1.50;;
24635;SDS011;12772;49.794;10.024;2022-10-16T13:31:48;2.03;;;1.27;;
24635;SDS011;12772;49.794;10.024;2022-10-16T13:35:54;1.27;;;1.17;;
24635;SDS011;12772;49.794;10.024;2022-10-16T13:44:30;4.22;;;1.60;;
24635;SDS011;12772;49.794;10.024;2022-10-16T13:48:37;2.00;;;1.23;;
24635;SDS011;12772;49.794;10.024;2022-10-16T13:52:39;1.52;;;1.42;;
24635;SDS011;12772;49.794;10.024;2022-10-16T13:56:41;5.65;;;1.38;;
24635;SDS011;12772;49.794;10.024;2022-10-16T14:00:53;2.67;;;1.45;;
24635;SDS011;12772;49.794;10.024;2022-10-16T14:04:57;1.98;;;1.38;;
24635;SDS011;12772;49.794;10.024;2022-10-16T14:09:12;5.30;;;1.42;;
24635;SDS011;12772;49.794;10.024;2022-10-16T14:13:31;1.40;;;1.30;;
24635;SDS011;12772;49.794;10.024;2022-10-16T14:17:38;1.77;;;1.15;;
24635;SDS011;12772;49.794;10.024;2022-10-16T14:21:47;1.85;;;1.25;;
24635;SDS011;12772;49.794;10.024;2022-10-16T14:25:49;2.03;;;1.17;;
24635;SDS011;12772;49.794;10.024;2022-10-16T14:30:03;1.42;;;1.23;;
24635;SDS011;12772;49.794;10.024;2022-10-16T14:34:23;1.40;;;1.30;;
24635;SDS011;12772;49.794;10.024;2022-10-16T14:38:25;4.78;;;1.48;;
24635;SDS011;12772;49.794;10.024;2022-10-16T14:42:28;1.17;;;1.17;;
24635;SDS011;12772;49.794;10.024;2022-10-16T14:46:34;1.63;;;1.30;;
24635;SDS011;12772;49.794;10.024;2022-10-16T14:50:38;1.70;;;1.60;;
24635;SDS011;12772;49.794;10.024;2022-10-16T14:54:40;2.95;;;1.63;;
24635;SDS011;12772;49.794;10.024;2022-10-16T14:58:42;1.75;;;1.40;;
24635;SDS011;12772;49.794;10.024;2022-10-16T15:02:44;3.38;;;1.60;;
24635;SDS011;12772;49.794;10.024;2022-10-16T15:06:47;1.45;;;1.35;;
24635;SDS011;12772;49.794;10.024;2022-10-16T15:10:49;1.55;;;1.20;;
24635;SDS011;12772;49.794;10.024;2022-10-16T15:14:52;2.03;;;1.48;;
24635;SDS011;12772;49.794;10.024;2022-10-16T15:18:54;1.75;;;1.65;;
24635;SDS011;12772;49.794;10.024;2022-10-16T15:22:56;3.03;;;2.08;;
24635;SDS011;12772;49.794;10.024;2022-10-16T15:26:59;2.42;;;2.03;;
24635;SDS011;12772;49.794;10.024;2022-10-16T15:31:01;3.28;;;2.08;;
24635;SDS011;12772;49.794;10.024;2022-10-16T15:35:08;5.55;;;3.63;;
24635;SDS011;12772;49.794;10.024;2022-10-16T15:39:15;3.63;;;2.80;;
24635;SDS011;12772;49.794;10.024;2022-10-16T15:43:18;4.18;;;2.65;;
24635;SDS011;12772;49.794;10.024;2022-10-16T15:47:20;2.28;;;1.92;;
24635;SDS011;12772;49.794;10.024;2022-10-16T15:51:22;3.70;;;2.10;;
24635;SDS011;12772;49.794;10.024;2022-10-16T15:55:24;4.15;;;2.53;;
24635;SDS011;12772;49.794;10.024;2022-10-16T15:59:27;3.70;;;3.40;;
24635;SDS011;12772;49.794;10.024;2022-10-16T16:03:29;5.28;;;4.88;;
24635;SDS011;12772;49.794;10.024;2022-10-16T16:07:32;4.40;;;4.00;;
24635;SDS011;12772;49.794;10.024;2022-10-16T16:11:35;4.13;;;3.83;;
24635;SDS011;12772;49.794;10.024;2022-10-16T16:15:39;3.47;;;3.05;;
24635;SDS011;12772;49.794;10.024;2022-10-16T16:19:41;3.65;;;3.20;;
24635;SDS011;12772;49.794;10.024;2022-10-16T16:23:43;3.15;;;2.72;;
24635;SDS011;12772;49.794;10.024;2022-10-16T16:27:45;5.43;;;2.80;;
24635;SDS011;12772;49.794;10.024;2022-10-16T16:31:47;3.25;;;2.95;;
24635;SDS011;12772;49.794;10.024;2022-10-16T16:35:49;3.63;;;3.33;;
24635;SDS011;12772;49.794;10.024;2022-10-16T16:39:51;6.03;;;4.65;;
24635;SDS011;12772;49.794;10.024;2022-10-16T16:43:55;3.83;;;3.35;;
24635;SDS011;12772;49.794;10.024;2022-10-16T16:48:03;4.07;;;3.30;;
24635;SDS011;12772;49.794;10.024;2022-10-16T16:52:06;3.58;;;3.28;;
24635;SDS011;12772;49.794;10.024;2022-10-16T16:56:08;5.78;;;3.40;;
24635;SDS011;12772;49.794;10.024;2022-10-16T17:00:10;6.97;;;3.60;;
24635;SDS011;12772;49.794;10.024;2022-10-16T17:04:13;4.22;;;2.60;;
24635;SDS011;12772;49.794;10.024;2022-10-16T17:08:15;4.70;;;3.35;;
24635;SDS011;12772;49.794;10.024;2022-10-16T17:12:17;4.03;;;2.60;;
24635;SDS011;12772;49.794;10.024;2022-10-16T17:16:20;2.45;;;2.25;;
24635;SDS011;12772;49.794;10.024;2022-10-16T17:20:24;8.50;;;2.70;;
24635;SDS011;12772;49.794;10.024;2022-10-16T17:24:26;3.10;;;2.40;;
24635;SDS011;12772;49.794;10.024;2022-10-16T17:28:28;2.47;;;2.30;;
24635;SDS011;12772;49.794;10.024;2022-10-16T17:32:30;3.00;;;2.70;;
24635;SDS011;12772;49.794;10.024;2022-10-16T17:36:33;4.60;;;3.33;;
24635;SDS011;12772;49.794;10.024;2022-10-16T17:40:37;5.78;;;4.13;;
24635;SDS011;12772;49.794;10.024;2022-10-16T17:44:40;4.75;;;3.90;;
24635;SDS011;12772;49.794;10.024;2022-10-16T17:48:42;4.88;;;4.35;;
24635;SDS011;12772;49.794;10.024;2022-10-16T17:52:46;7.95;;;5.03;;
24635;SDS011;12772;49.794;10.024;2022-10-16T17:56:48;5.30;;;4.55;;
24635;SDS011;12772;49.794;10.024;2022-10-16T18:00:50;10.48;;;4.53;;
24635;SDS011;12772;49.794;10.024;2022-10-16T18:04:52;7.18;;;4.05;;
24635;SDS011;12772;49.794;10.024;2022-10-16T18:08:56;5.78;;;3.50;;
24635;SDS011;12772;49.794;10.024;2022-10-16T18:12:58;3.45;;;2.80;;
24635;SDS011;12772;49.794;10.024;2022-10-16T18:17:01;2.30;;;2.10;;
24635;SDS011;12772;49.794;10.024;2022-10-16T18:21:05;2.80;;;2.13;;
24635;SDS011;12772;49.794;10.024;2022-10-16T18:25:09;5.88;;;2.40;;
24635;SDS011;12772;49.794;10.024;2022-10-16T18:29:11;2.60;;;2.40;;
24635;SDS011;12772;49.794;10.024;2022-10-16T18:33:13;3.00;;;2.50;;
24635;SDS011;12772;49.794;10.024;2022-10-16T18:37:15;4.22;;;2.45;;
24635;SDS011;12772;49.794;10.024;2022-10-16T18:41:19;3.13;;;2.28;;
24635;SDS011;12772;49.794;10.024;2022-10-16T18:45:21;2.60;;;2.40;;
24635;SDS011;12772;49.794;10.024;2022-10-16T18:49:23;3.67;;;2.55;;
24635;SDS011;12772;49.794;10.024;2022-10-16T18:53:26;2.53;;;2.33;;
24635;SDS011;12772;49.794;10.024;2022-10-16T18:57:28;3.28;;;2.45;;
24635;SDS011;12772;49.794;10.024;2022-10-16T19:01:31;2.22;;;2.03;;
24635;SDS011;12772;49.794;10.024;2022-10-16T19:05:35;2.10;;;2.00;;
24635;SDS011;12772;49.794;10.024;2022-10-16T19:09:37;2.22;;;2.00;;
24635;SDS011;12772;49.794;10.024;2022-10-16T19:13:40;2.35;;;2.10;;
24635;SDS011;12772;49.794;10.024;2022-10-16T19:17:42;3.22;;;2.92;;
24635;SDS011;12772;49.794;10.024;2022-10-16T19:21:44;2.38;;;2.25;;
24635;SDS011;12772;49.794;10.024;2022-10-16T19:25:47;4.78;;;2.95;;
24635;SDS011;12772;49.794;10.024;2022-10-16T19:29:49;2.72;;;2.25;;
24635;SDS011;12772;49.794;10.024;2022-10-16T19:33:52;3.90;;;2.97;;
24635;SDS011;12772;49.794;10.024;2022-10-16T19:37:55;2.65;;;2.45;;
24635;SDS011;12772;49.794;10.024;2022-10-16T19:41:57;3.20;;;2.42;;
24635;SDS011;12772;49.794;10.024;2022-10-16T19:46:09;3.85;;;2.38;;
24635;SDS011;12772;49.794;10.024;2022-10-16T19:50:14;4.38;;;2.63;;
24635;SDS011;12772;49.794;10.024;2022-10-16T19:54:18;3.63;;;2.72;;
24635;SDS011;12772;49.794;10.024;2022-10-16T19:58:21;4.00;;;3.67;;
24635;SDS011;12772;49.794;10.024;2022-10-16T20:02:23;6.05;;;4.07;;
24635;SDS011;12772;49.794;10.024;2022-10-16T20:06:25;4.95;;;4.45;;
24635;SDS011;12772;49.794;10.024;2022-10-16T20:10:27;6.55;;;4.40;;
24635;SDS011;12772;49.794;10.024;2022-10-16T20:14:30;5.40;;;4.90;;
24635;SDS011;12772;49.794;10.024;2022-10-16T20:18:32;7.22;;;5.55;;
24635;SDS011;12772;49.794;10.024;2022-10-16T20:22:34;6.63;;;4.85;;
24635;SDS011;12772;49.794;10.024;2022-10-16T20:26:36;9.55;;;6.45;;
24635;SDS011;12772;49.794;10.024;2022-10-16T20:30:40;6.40;;;5.45;;
24635;SDS011;12772;49.794;10.024;2022-10-16T20:34:43;5.25;;;4.78;;
24635;SDS011;12772;49.794;10.024;2022-10-16T20:38:48;4.93;;;4.30;;
24635;SDS011;12772;49.794;10.024;2022-10-16T20:42:50;3.83;;;3.53;;
24635;SDS011;12772;49.794;10.024;2022-10-16T20:46:53;3.72;;;3.42;;
24635;SDS011;12772;49.794;10.024;2022-10-16T20:50:55;6.07;;;3.38;;
24635;SDS011;12772;49.794;10.024;2022-10-16T20:54:59;4.38;;;3.45;;
24635;SDS011;12772;49.794;10.024;2022-10-16T20:59:01;3.95;;;3.03;;
24635;SDS011;12772;49.794;10.024;2022-10-16T21:03:04;6.10;;;3.25;;
24635;SDS011;12772;49.794;10.024;2022-10-16T21:07:06;4.63;;;3.15;;
24635;SDS011;12772;49.794;10.024;2022-10-16T21:11:09;4.97;;;3.55;;
24635;SDS011;12772;49.794;10.024;2022-10-16T21:15:12;3.08;;;2.70;;
24635;SDS011;12772;49.794;10.024;2022-10-16T21:19:14;3.50;;;3.20;;
24635;SDS011;12772;49.794;10.024;2022-10-16T21:23:16;3.97;;;3.10;;
24635;SDS011;12772;49.794;10.024;2022-10-16T21:27:19;3.97;;;2.90;;
24635;SDS011;12772;49.794;10.024;2022-10-16T21:31:21;5.32;;;3.10;;
24635;SDS011;12772;49.794;10.024;2022-10-16T21:35:23;3.45;;;2.83;;
24635;SDS011;12772;49.794;10.024;2022-10-16T21:39:25;4.57;;;2.97;;
24635;SDS011;12772;49.794;10.024;2022-10-16T21:43:28;4.30;;;3.30;;
24635;SDS011;12772;49.794;10.024;2022-10-16T21:47:30;4.15;;;2.95;;
24635;SDS011;12772;49.794;10.024;2022-10-16T21:51:34;3.20;;;3.00;;
24635;SDS011;12772;49.794;10.024;2022-10-16T21:55:38;6.93;;;3.70;;
24635;SDS011;12772;49.794;10.024;2022-10-16T21:59:40;10.40;;;3.13;;
24635;SDS011;12772;49.794;10.024;2022-10-16T22:03:43;6.30;;;4.53;;
24635;SDS011;12772;49.794;10.024;2022-10-16T22:07:46;8.48;;;6.20;;
24635;SDS011;12772;49.794;10.024;2022-10-16T22:11:48;11.50;;;6.43;;
24635;SDS011;12772;49.794;10.024;2022-10-16T22:15:50;10.82;;;6.82;;
24635;SDS011;12772;49.794;10.024;2022-10-16T22:19:52;11.65;;;8.38;;
24635;SDS011;12772;49.794;10.024;2022-10-16T22:23:54;12.73;;;9.02;;
24635;SDS011;12772;49.794;10.024;2022-10-16T22:27:56;8.55;;;6.15;;
24635;SDS011;12772;49.794;10.024;2022-10-16T22:31:59;7.25;;;4.82;;
24635;SDS011;12772;49.794;10.024;2022-10-16T22:36:01;4.22;;;3.53;;
24635;SDS011;12772;49.794;10.024;2022-10-16T22:40:05;4.78;;;3.08;;
24635;SDS011;12772;49.794;10.024;2022-10-16T22:44:09;6.47;;;3.30;;
24635;SDS011;12772;49.794;10.024;2022-10-16T22:48:12;4.43;;;2.40;;
24635;SDS011;12772;49.794;10.024;2022-10-16T22:52:14;3.33;;;2.83;;
24635;SDS011;12772;49.794;10.024;2022-10-16T22:56:17;3.17;;;2.67;;
24635;SDS011;12772;49.794;10.024;2022-10-16T23:00:21;5.72;;;2.50;;
24635;SDS011;12772;49.794;10.024;2022-10-16T23:04:23;2.70;;;2.50;;
24635;SDS011;12772;49.794;10.024;2022-10-16T23:08:25;2.30;;;2.10;;
24635;SDS011;12772;49.794;10.024;2022-10-16T23:12:27;3.95;;;2.47;;
24635;SDS011;12772;49.794;10.024;2022-10-16T23:16:29;4.10;;;2.10;;
24635;SDS011;12772;49.794;10.024;2022-10-16T23:20:31;3.33;;;1.90;;
24635;SDS011;12772;49.794;10.024;2022-10-16T23:24:33;4.03;;;2.50;;
24635;SDS011;12772;49.794;10.024;2022-10-16T23:28:36;7.05;;;2.33;;
24635;SDS011;12772;49.794;10.024;2022-10-16T23:32:39;4.28;;;2.20;;
24635;SDS011;12772;49.794;10.024;2022-10-16T23:36:41;4.65;;;2.20;;
24635;SDS011;12772;49.794;10.024;2022-10-16T23:40:44;5.35;;;2.72;;
24635;SDS011;12772;49.794;10.024;2022-10-16T23:44:46;3.78;;;2.65;;
24635;SDS011;12772;49.794;10.024;2022-10-16T23:48:48;3.30;;;2.10;;
24635;SDS011;12772;49.794;10.024;2022-10-16T23:52:50;6.78;;;2.80;;
24635;SDS011;12772;49.794;10.024;2022-10-16T23:56:52;4.32;;;2.20;;
